sensor_id;sensor_type;location;lat;lon;timestamp;pressure;altitude;pressure_sealevel;temperature;humidity
76166;BME280;64925;46.718;20.136;2022-11-06T00:01:12;100679.31;;;11.20;89.31
76166;BME280;64925;46.718;20.136;2022-11-06T00:04:13;100677.78;;;11.22;88.69
76166;BME280;64925;46.718;20.136;2022-11-06T00:07:13;100681.19;;;11.12;88.94
76166;BME280;64925;46.718;20.136;2022-11-06T00:10:14;100684.34;;;11.18;89.19
76166;BME280;64925;46.718;20.136;2022-11-06T00:13:15;100678.09;;;11.17;88.67
76166;BME280;64925;46.718;20.136;2022-11-06T00:16:15;100683.63;;;11.24;88.01
76166;BME280;64925;46.718;20.136;2022-11-06T00:19:16;100678.81;;;11.11;88.68
76166;BME280;64925;46.718;20.136;2022-11-06T00:22:16;100686.94;;;11.07;88.95
76166;BME280;64925;46.718;20.136;2022-11-06T00:25:17;100694.78;;;11.12;89.08
76166;BME280;64925;46.718;20.136;2022-11-06T00:28:18;100680.78;;;11.10;88.63
76166;BME280;64925;46.718;20.136;2022-11-06T00:31:20;100691.75;;;11.21;88.55
76166;BME280;64925;46.718;20.136;2022-11-06T00:34:21;100688.13;;;11.10;88.68
76166;BME280;64925;46.718;20.136;2022-11-06T00:37:21;100676.84;;;11.08;88.33
76166;BME280;64925;46.718;20.136;2022-11-06T00:40:22;100683.50;;;11.10;88.17
76166;BME280;64925;46.718;20.136;2022-11-06T00:43:22;100676.94;;;11.15;87.58
76166;BME280;64925;46.718;20.136;2022-11-06T00:46:23;100684.25;;;11.11;88.04
76166;BME280;64925;46.718;20.136;2022-11-06T00:49:23;100685.78;;;11.08;88.05
76166;BME280;64925;46.718;20.136;2022-11-06T00:52:24;100692.91;;;11.20;87.62
76166;BME280;64925;46.718;20.136;2022-11-06T00:55:24;100688.50;;;11.08;88.09
76166;BME280;64925;46.718;20.136;2022-11-06T00:58:24;100689.97;;;10.99;88.24
76166;BME280;64925;46.718;20.136;2022-11-06T01:01:33;100696.91;;;10.96;88.61
76166;BME280;64925;46.718;20.136;2022-11-06T01:04:33;100687.59;;;10.97;88.33
76166;BME280;64925;46.718;20.136;2022-11-06T01:07:34;100704.03;;;11.08;87.82
76166;BME280;64925;46.718;20.136;2022-11-06T01:10:36;100700.13;;;11.05;88.13
76166;BME280;64925;46.718;20.136;2022-11-06T01:13:36;100705.16;;;11.03;87.59
76166;BME280;64925;46.718;20.136;2022-11-06T01:16:37;100694.25;;;11.00;87.94
76166;BME280;64925;46.718;20.136;2022-11-06T01:19:38;100691.56;;;11.03;87.80
76166;BME280;64925;46.718;20.136;2022-11-06T01:22:39;100696.34;;;11.13;87.62
76166;BME280;64925;46.718;20.136;2022-11-06T01:25:39;100705.19;;;11.07;87.45
76166;BME280;64925;46.718;20.136;2022-11-06T01:28:40;100696.97;;;11.00;87.95
76166;BME280;64925;46.718;20.136;2022-11-06T01:31:40;100697.97;;;10.88;88.03
76166;BME280;64925;46.718;20.136;2022-11-06T01:34:41;100697.63;;;10.93;88.13
76166;BME280;64925;46.718;20.136;2022-11-06T01:37:41;100705.03;;;10.93;88.27
76166;BME280;64925;46.718;20.136;2022-11-06T01:40:43;100697.38;;;11.02;87.89
76166;BME280;64925;46.718;20.136;2022-11-06T01:43:57;100693.81;;;10.98;88.19
76166;BME280;64925;46.718;20.136;2022-11-06T01:46:59;100693.78;;;10.94;88.42
76166;BME280;64925;46.718;20.136;2022-11-06T01:50:04;100698.53;;;11.01;88.55
76166;BME280;64925;46.718;20.136;2022-11-06T01:53:06;100703.06;;;10.93;89.06
76166;BME280;64925;46.718;20.136;2022-11-06T01:56:08;100702.31;;;10.93;89.00
76166;BME280;64925;46.718;20.136;2022-11-06T01:59:13;100700.66;;;10.85;89.69
76166;BME280;64925;46.718;20.136;2022-11-06T02:02:15;100694.38;;;10.81;89.40
76166;BME280;64925;46.718;20.136;2022-11-06T02:05:16;100691.03;;;10.91;89.22
76166;BME280;64925;46.718;20.136;2022-11-06T02:08:18;100689.88;;;10.92;88.86
76166;BME280;64925;46.718;20.136;2022-11-06T02:11:20;100691.09;;;10.98;88.69
76166;BME280;64925;46.718;20.136;2022-11-06T02:15:20;100696.78;;;10.86;88.94
76166;BME280;64925;46.718;20.136;2022-11-06T02:18:12;100700.28;;;10.86;88.53
76166;BME280;64925;46.718;20.136;2022-11-06T02:24:49;100698.25;;;10.80;89.03
76166;BME280;64925;46.718;20.136;2022-11-06T02:28:00;100697.09;;;10.81;88.51
76166;BME280;64925;46.718;20.136;2022-11-06T02:31:08;100693.88;;;10.72;88.69
76166;BME280;64925;46.718;20.136;2022-11-06T02:34:13;100701.69;;;10.73;88.77
76166;BME280;64925;46.718;20.136;2022-11-06T02:37:18;100693.78;;;10.65;88.95
76166;BME280;64925;46.718;20.136;2022-11-06T02:40:22;100683.25;;;10.60;89.00
76166;BME280;64925;46.718;20.136;2022-11-06T02:43:30;100690.81;;;10.44;89.45
76166;BME280;64925;46.718;20.136;2022-11-06T02:46:40;100709.03;;;10.44;89.31
76166;BME280;64925;46.718;20.136;2022-11-06T02:52:53;100707.81;;;10.41;89.46
76166;BME280;64925;46.718;20.136;2022-11-06T02:55:57;100713.19;;;10.38;89.61
76166;BME280;64925;46.718;20.136;2022-11-06T02:59:05;100710.19;;;10.43;89.30
76166;BME280;64925;46.718;20.136;2022-11-06T03:02:13;100718.72;;;10.45;89.46
76166;BME280;64925;46.718;20.136;2022-11-06T03:05:28;100725.41;;;10.51;88.95
76166;BME280;64925;46.718;20.136;2022-11-06T03:11:38;100743.50;;;10.65;88.16
76166;BME280;64925;46.718;20.136;2022-11-06T03:15:08;100746.06;;;10.55;88.20
76166;BME280;64925;46.718;20.136;2022-11-06T03:18:26;100748.34;;;10.53;88.07
76166;BME280;64925;46.718;20.136;2022-11-06T03:25:21;100761.53;;;10.51;87.91
76166;BME280;64925;46.718;20.136;2022-11-06T03:28:33;100759.53;;;10.48;87.96
76166;BME280;64925;46.718;20.136;2022-11-06T03:31:39;100768.53;;;10.52;87.19
76166;BME280;64925;46.718;20.136;2022-11-06T03:34:50;100763.56;;;10.32;88.05
76166;BME280;64925;46.718;20.136;2022-11-06T03:37:59;100778.28;;;10.31;87.97
76166;BME280;64925;46.718;20.136;2022-11-06T03:41:04;100758.38;;;10.23;88.52
76166;BME280;64925;46.718;20.136;2022-11-06T03:44:09;100774.78;;;10.30;88.33
76166;BME280;64925;46.718;20.136;2022-11-06T03:47:18;100777.66;;;10.41;87.74
76166;BME280;64925;46.718;20.136;2022-11-06T03:53:27;100775.81;;;10.48;87.15
76166;BME280;64925;46.718;20.136;2022-11-06T03:59:41;100775.13;;;10.51;86.60
76166;BME280;64925;46.718;20.136;2022-11-06T04:02:47;100766.22;;;10.54;86.79
76166;BME280;64925;46.718;20.136;2022-11-06T04:05:57;100770.41;;;10.48;86.70
76166;BME280;64925;46.718;20.136;2022-11-06T04:09:01;100772.91;;;10.60;86.26
76166;BME280;64925;46.718;20.136;2022-11-06T04:12:24;100776.34;;;10.57;86.15
76166;BME280;64925;46.718;20.136;2022-11-06T04:15:49;100785.94;;;10.48;86.67
76166;BME280;64925;46.718;20.136;2022-11-06T04:18:51;100780.84;;;10.46;87.10
76166;BME280;64925;46.718;20.136;2022-11-06T04:22:01;100781.84;;;10.35;87.26
76166;BME280;64925;46.718;20.136;2022-11-06T04:28:47;100790.91;;;10.46;86.89
76166;BME280;64925;46.718;20.136;2022-11-06T04:32:03;100793.03;;;10.56;86.49
76166;BME280;64925;46.718;20.136;2022-11-06T04:41:36;100803.94;;;10.59;85.38
76166;BME280;64925;46.718;20.136;2022-11-06T04:44:47;100810.16;;;10.59;85.54
76166;BME280;64925;46.718;20.136;2022-11-06T04:47:51;100804.41;;;10.64;85.54
76166;BME280;64925;46.718;20.136;2022-11-06T04:50:55;100804.66;;;10.56;85.82
76166;BME280;64925;46.718;20.136;2022-11-06T04:53:58;100810.63;;;10.65;85.51
76166;BME280;64925;46.718;20.136;2022-11-06T04:56:59;100813.72;;;10.63;85.86
76166;BME280;64925;46.718;20.136;2022-11-06T05:00:00;100813.84;;;10.48;86.41
76166;BME280;64925;46.718;20.136;2022-11-06T05:03:00;100819.41;;;10.55;86.36
76166;BME280;64925;46.718;20.136;2022-11-06T05:06:01;100834.53;;;10.56;86.27
76166;BME280;64925;46.718;20.136;2022-11-06T05:09:01;100826.09;;;10.61;85.46
76166;BME280;64925;46.718;20.136;2022-11-06T05:12:02;100827.66;;;10.62;85.50
76166;BME280;64925;46.718;20.136;2022-11-06T05:15:02;100835.88;;;10.65;85.75
76166;BME280;64925;46.718;20.136;2022-11-06T05:18:03;100842.44;;;10.64;85.62
76166;BME280;64925;46.718;20.136;2022-11-06T05:21:04;100843.03;;;10.51;86.22
76166;BME280;64925;46.718;20.136;2022-11-06T05:24:23;100837.66;;;10.58;85.87
76166;BME280;64925;46.718;20.136;2022-11-06T05:27:23;100834.72;;;10.66;86.13
76166;BME280;64925;46.718;20.136;2022-11-06T05:30:24;100824.72;;;10.74;85.61
76166;BME280;64925;46.718;20.136;2022-11-06T05:33:24;100821.38;;;10.58;86.41
76166;BME280;64925;46.718;20.136;2022-11-06T05:36:25;100839.97;;;10.56;86.84
76166;BME280;64925;46.718;20.136;2022-11-06T05:39:25;100847.53;;;10.44;87.77
76166;BME280;64925;46.718;20.136;2022-11-06T05:42:25;100850.06;;;10.56;87.01
76166;BME280;64925;46.718;20.136;2022-11-06T05:45:26;100861.09;;;10.66;86.13
76166;BME280;64925;46.718;20.136;2022-11-06T05:48:27;100870.53;;;10.50;86.81
76166;BME280;64925;46.718;20.136;2022-11-06T05:51:28;100865.47;;;10.48;87.03
76166;BME280;64925;46.718;20.136;2022-11-06T05:54:28;100871.44;;;10.57;86.77
76166;BME280;64925;46.718;20.136;2022-11-06T05:57:28;100871.00;;;10.55;86.95
76166;BME280;64925;46.718;20.136;2022-11-06T06:00:29;100881.47;;;10.53;87.19
76166;BME280;64925;46.718;20.136;2022-11-06T06:03:29;100883.44;;;10.56;87.26
76166;BME280;64925;46.718;20.136;2022-11-06T06:06:29;100892.97;;;10.24;89.66
76166;BME280;64925;46.718;20.136;2022-11-06T06:09:30;100890.81;;;10.33;88.72
76166;BME280;64925;46.718;20.136;2022-11-06T06:12:30;100906.59;;;10.47;88.19
76166;BME280;64925;46.718;20.136;2022-11-06T06:15:31;100916.78;;;10.53;88.38
76166;BME280;64925;46.718;20.136;2022-11-06T06:18:31;100917.47;;;10.50;88.42
76166;BME280;64925;46.718;20.136;2022-11-06T06:21:31;100930.38;;;10.53;87.98
76166;BME280;64925;46.718;20.136;2022-11-06T06:24:31;100933.50;;;10.55;87.89
76166;BME280;64925;46.718;20.136;2022-11-06T06:27:32;100935.72;;;10.50;88.77
76166;BME280;64925;46.718;20.136;2022-11-06T06:30:33;100938.50;;;10.53;88.62
76166;BME280;64925;46.718;20.136;2022-11-06T06:33:34;100936.28;;;10.58;88.17
76166;BME280;64925;46.718;20.136;2022-11-06T06:36:35;100949.06;;;10.58;88.78
76166;BME280;64925;46.718;20.136;2022-11-06T06:39:35;100951.00;;;10.57;89.45
76166;BME280;64925;46.718;20.136;2022-11-06T06:42:35;100956.16;;;10.63;88.52
76166;BME280;64925;46.718;20.136;2022-11-06T06:45:36;100968.59;;;10.63;89.09
76166;BME280;64925;46.718;20.136;2022-11-06T06:48:36;100969.72;;;10.63;88.84
76166;BME280;64925;46.718;20.136;2022-11-06T06:51:36;100961.59;;;10.63;88.52
76166;BME280;64925;46.718;20.136;2022-11-06T06:54:37;100971.25;;;10.60;88.95
76166;BME280;64925;46.718;20.136;2022-11-06T06:57:37;100971.53;;;10.77;88.31
76166;BME280;64925;46.718;20.136;2022-11-06T07:00:38;100959.28;;;10.64;87.82
76166;BME280;64925;46.718;20.136;2022-11-06T07:03:38;100954.19;;;10.63;88.14
76166;BME280;64925;46.718;20.136;2022-11-06T07:06:39;100955.78;;;10.86;87.26
76166;BME280;64925;46.718;20.136;2022-11-06T07:09:39;100956.25;;;10.92;86.44
76166;BME280;64925;46.718;20.136;2022-11-06T07:12:39;100962.34;;;10.85;86.96
76166;BME280;64925;46.718;20.136;2022-11-06T07:15:40;100965.97;;;10.93;86.57
76166;BME280;64925;46.718;20.136;2022-11-06T07:18:40;100972.47;;;11.11;85.61
76166;BME280;64925;46.718;20.136;2022-11-06T07:21:40;100964.72;;;11.13;85.40
76166;BME280;64925;46.718;20.136;2022-11-06T07:24:41;100961.13;;;11.05;85.60
76166;BME280;64925;46.718;20.136;2022-11-06T07:27:41;100957.31;;;11.10;85.53
76166;BME280;64925;46.718;20.136;2022-11-06T07:30:41;100979.25;;;10.98;85.94
76166;BME280;64925;46.718;20.136;2022-11-06T07:33:42;100978.81;;;11.18;85.44
76166;BME280;64925;46.718;20.136;2022-11-06T07:36:42;100974.41;;;11.10;86.11
76166;BME280;64925;46.718;20.136;2022-11-06T07:39:42;100990.50;;;11.22;85.61
76166;BME280;64925;46.718;20.136;2022-11-06T07:42:43;100981.88;;;11.17;85.58
76166;BME280;64925;46.718;20.136;2022-11-06T07:45:43;100981.84;;;11.13;85.77
76166;BME280;64925;46.718;20.136;2022-11-06T07:48:44;100982.47;;;11.29;85.00
76166;BME280;64925;46.718;20.136;2022-11-06T07:51:44;100982.34;;;11.22;84.78
76166;BME280;64925;46.718;20.136;2022-11-06T07:54:44;100985.72;;;11.38;83.71
76166;BME280;64925;46.718;20.136;2022-11-06T07:57:45;100989.94;;;11.36;84.21
76166;BME280;64925;46.718;20.136;2022-11-06T08:00:47;100990.84;;;11.43;83.55
76166;BME280;64925;46.718;20.136;2022-11-06T08:03:47;100984.56;;;11.39;84.51
76166;BME280;64925;46.718;20.136;2022-11-06T08:06:48;100987.63;;;11.38;84.89
76166;BME280;64925;46.718;20.136;2022-11-06T08:09:48;100978.25;;;11.32;85.50
76166;BME280;64925;46.718;20.136;2022-11-06T08:12:48;100978.41;;;11.46;83.88
76166;BME280;64925;46.718;20.136;2022-11-06T08:15:49;100978.97;;;11.55;83.04
76166;BME280;64925;46.718;20.136;2022-11-06T08:18:49;100978.97;;;11.55;83.19
76166;BME280;64925;46.718;20.136;2022-11-06T08:21:49;100984.81;;;11.57;82.83
76166;BME280;64925;46.718;20.136;2022-11-06T08:24:50;100982.34;;;11.48;84.20
76166;BME280;64925;46.718;20.136;2022-11-06T08:27:53;100980.97;;;11.58;82.95
76166;BME280;64925;46.718;20.136;2022-11-06T08:30:54;100981.19;;;11.49;82.82
76166;BME280;64925;46.718;20.136;2022-11-06T08:33:54;100973.25;;;11.37;84.11
76166;BME280;64925;46.718;20.136;2022-11-06T08:36:55;100969.22;;;11.54;83.80
76166;BME280;64925;46.718;20.136;2022-11-06T08:39:55;100975.25;;;11.40;83.07
76166;BME280;64925;46.718;20.136;2022-11-06T08:42:59;100975.34;;;11.47;83.58
76166;BME280;64925;46.718;20.136;2022-11-06T08:45:59;100973.03;;;11.49;83.22
76166;BME280;64925;46.718;20.136;2022-11-06T08:49:00;100974.78;;;11.61;82.28
76166;BME280;64925;46.718;20.136;2022-11-06T08:52:00;100976.66;;;11.57;82.64
76166;BME280;64925;46.718;20.136;2022-11-06T08:55:00;100970.91;;;11.62;82.46
76166;BME280;64925;46.718;20.136;2022-11-06T08:58:01;100972.06;;;11.61;83.19
76166;BME280;64925;46.718;20.136;2022-11-06T09:01:02;100969.81;;;11.66;82.47
76166;BME280;64925;46.718;20.136;2022-11-06T09:04:02;100971.78;;;11.69;82.98
76166;BME280;64925;46.718;20.136;2022-11-06T09:07:03;100981.78;;;11.62;83.09
76166;BME280;64925;46.718;20.136;2022-11-06T09:10:03;100981.31;;;11.82;81.89
76166;BME280;64925;46.718;20.136;2022-11-06T09:13:04;100984.19;;;11.96;81.18
76166;BME280;64925;46.718;20.136;2022-11-06T09:16:06;100996.31;;;12.02;81.65
76166;BME280;64925;46.718;20.136;2022-11-06T09:19:06;100980.41;;;12.04;81.81
76166;BME280;64925;46.718;20.136;2022-11-06T09:22:08;100984.53;;;12.24;81.21
76166;BME280;64925;46.718;20.136;2022-11-06T09:25:09;100991.19;;;12.27;80.43
76166;BME280;64925;46.718;20.136;2022-11-06T09:28:10;101002.03;;;12.60;80.39
76166;BME280;64925;46.718;20.136;2022-11-06T09:31:11;100993.63;;;12.75;79.22
76166;BME280;64925;46.718;20.136;2022-11-06T09:34:12;100999.66;;;12.95;78.86
76166;BME280;64925;46.718;20.136;2022-11-06T09:37:12;100997.22;;;13.26;76.27
76166;BME280;64925;46.718;20.136;2022-11-06T09:40:21;101007.00;;;13.38;76.76
76166;BME280;64925;46.718;20.136;2022-11-06T09:46:45;101014.59;;;13.58;76.77
76166;BME280;64925;46.718;20.136;2022-11-06T09:49:49;101009.25;;;13.83;75.71
76166;BME280;64925;46.718;20.136;2022-11-06T09:52:54;101008.22;;;14.12;71.55
76166;BME280;64925;46.718;20.136;2022-11-06T09:55:56;101009.38;;;14.07;72.93
76166;BME280;64925;46.718;20.136;2022-11-06T09:59:02;101009.88;;;14.37;70.82
76166;BME280;64925;46.718;20.136;2022-11-06T10:02:24;101011.50;;;14.52;72.50
76166;BME280;64925;46.718;20.136;2022-11-06T10:05:30;101000.97;;;14.64;71.25
76166;BME280;64925;46.718;20.136;2022-11-06T10:08:31;100999.81;;;14.76;70.48
76166;BME280;64925;46.718;20.136;2022-11-06T10:11:46;100996.72;;;14.95;70.72
76166;BME280;64925;46.718;20.136;2022-11-06T10:14:59;100990.47;;;14.94;69.25
76166;BME280;64925;46.718;20.136;2022-11-06T10:21:44;100991.22;;;15.30;68.64
76166;BME280;64925;46.718;20.136;2022-11-06T10:25:16;100984.59;;;15.45;68.21
76166;BME280;64925;46.718;20.136;2022-11-06T10:31:43;100979.09;;;15.48;67.31
76166;BME280;64925;46.718;20.136;2022-11-06T10:34:48;100974.38;;;15.52;67.93
76166;BME280;64925;46.718;20.136;2022-11-06T10:37:57;100980.16;;;15.89;65.03
76166;BME280;64925;46.718;20.136;2022-11-06T10:41:00;100981.06;;;15.51;65.41
76166;BME280;64925;46.718;20.136;2022-11-06T10:44:01;100978.66;;;15.64;65.60
76166;BME280;64925;46.718;20.136;2022-11-06T10:47:26;100978.16;;;16.00;65.39
76166;BME280;64925;46.718;20.136;2022-11-06T10:50:37;100979.66;;;16.15;65.52
76166;BME280;64925;46.718;20.136;2022-11-06T11:00:15;100964.59;;;15.58;67.14
76166;BME280;64925;46.718;20.136;2022-11-06T11:06:25;100966.53;;;16.54;63.90
76166;BME280;64925;46.718;20.136;2022-11-06T11:09:30;100957.84;;;17.58;60.70
76166;BME280;64925;46.718;20.136;2022-11-06T11:12:31;100954.84;;;18.65;55.10
76166;BME280;64925;46.718;20.136;2022-11-06T11:15:43;100955.94;;;18.71;55.92
76166;BME280;64925;46.718;20.136;2022-11-06T11:18:44;100954.53;;;18.59;56.42
76166;BME280;64925;46.718;20.136;2022-11-06T11:21:57;100950.53;;;19.56;52.85
76166;BME280;64925;46.718;20.136;2022-11-06T11:25:04;100948.13;;;19.97;52.15
76166;BME280;64925;46.718;20.136;2022-11-06T11:28:05;100939.25;;;21.08;47.08
76166;BME280;64925;46.718;20.136;2022-11-06T11:31:16;100948.69;;;21.96;46.02
76166;BME280;64925;46.718;20.136;2022-11-06T11:34:21;100934.94;;;20.59;48.33
76166;BME280;64925;46.718;20.136;2022-11-06T11:37:29;100936.13;;;19.68;52.54
76166;BME280;64925;46.718;20.136;2022-11-06T11:40:35;100949.94;;;18.23;55.30
76166;BME280;64925;46.718;20.136;2022-11-06T11:43:36;100950.59;;;18.04;57.27
76166;BME280;64925;46.718;20.136;2022-11-06T11:46:50;100942.81;;;17.66;58.75
76166;BME280;64925;46.718;20.136;2022-11-06T11:49:50;100932.94;;;18.02;56.67
76166;BME280;64925;46.718;20.136;2022-11-06T11:52:54;100936.19;;;17.93;57.66
76166;BME280;64925;46.718;20.136;2022-11-06T11:55:55;100924.31;;;18.56;57.13
76166;BME280;64925;46.718;20.136;2022-11-06T11:58:58;100921.56;;;19.67;53.04
76166;BME280;64925;46.718;20.136;2022-11-06T12:02:20;100915.09;;;19.35;53.30
76166;BME280;64925;46.718;20.136;2022-11-06T12:05:25;100928.34;;;18.97;53.24
76166;BME280;64925;46.718;20.136;2022-11-06T12:08:27;100920.88;;;18.98;53.93
76166;BME280;64925;46.718;20.136;2022-11-06T12:11:29;100923.84;;;18.61;55.76
76166;BME280;64925;46.718;20.136;2022-11-06T12:14:32;100926.19;;;18.06;57.25
76166;BME280;64925;46.718;20.136;2022-11-06T12:17:36;100925.47;;;17.72;56.80
76166;BME280;64925;46.718;20.136;2022-11-06T12:23:50;100921.41;;;16.62;60.93
76166;BME280;64925;46.718;20.136;2022-11-06T12:30:14;100921.16;;;15.64;64.70
76166;BME280;64925;46.718;20.136;2022-11-06T12:33:20;100919.47;;;15.98;62.45
76166;BME280;64925;46.718;20.136;2022-11-06T12:36:24;100918.28;;;15.95;62.27
76166;BME280;64925;46.718;20.136;2022-11-06T12:39:28;100921.94;;;15.64;63.67
76166;BME280;64925;46.718;20.136;2022-11-06T12:42:32;100920.06;;;15.33;66.41
76166;BME280;64925;46.718;20.136;2022-11-06T12:55:38;100945.91;;;14.69;67.38
76166;BME280;64925;46.718;20.136;2022-11-06T13:05:43;100932.97;;;15.26;66.54
76166;BME280;64925;46.718;20.136;2022-11-06T13:15:35;100915.41;;;15.34;65.77
76166;BME280;64925;46.718;20.136;2022-11-06T13:18:45;100917.34;;;15.19;66.14
76166;BME280;64925;46.718;20.136;2022-11-06T13:25:03;100920.09;;;15.09;67.36
76166;BME280;64925;46.718;20.136;2022-11-06T13:28:28;100909.56;;;15.04;67.25
76166;BME280;64925;46.718;20.136;2022-11-06T13:31:40;100913.84;;;14.91;67.79
76166;BME280;64925;46.718;20.136;2022-11-06T13:34:47;100925.16;;;15.17;66.38
76166;BME280;64925;46.718;20.136;2022-11-06T13:37:49;100915.78;;;15.11;65.86
76166;BME280;64925;46.718;20.136;2022-11-06T13:40:57;100915.03;;;14.79;68.58
76166;BME280;64925;46.718;20.136;2022-11-06T13:44:04;100923.63;;;14.85;67.35
76166;BME280;64925;46.718;20.136;2022-11-06T13:47:13;100919.31;;;14.91;67.07
76166;BME280;64925;46.718;20.136;2022-11-06T13:53:36;100925.56;;;14.49;68.40
76166;BME280;64925;46.718;20.136;2022-11-06T14:00:20;100931.78;;;14.29;69.67
76166;BME280;64925;46.718;20.136;2022-11-06T14:04:07;100937.19;;;14.15;69.91
76166;BME280;64925;46.718;20.136;2022-11-06T14:07:11;100933.25;;;14.06;70.04
76166;BME280;64925;46.718;20.136;2022-11-06T14:10:17;100937.88;;;13.88;71.10
76166;BME280;64925;46.718;20.136;2022-11-06T14:13:26;100937.41;;;13.68;73.00
76166;BME280;64925;46.718;20.136;2022-11-06T14:16:37;100945.25;;;13.80;71.85
76166;BME280;64925;46.718;20.136;2022-11-06T14:19:40;100949.13;;;13.76;72.04
76166;BME280;64925;46.718;20.136;2022-11-06T14:22:41;100947.47;;;13.50;74.26
76166;BME280;64925;46.718;20.136;2022-11-06T14:28:42;100957.50;;;13.36;74.63
76166;BME280;64925;46.718;20.136;2022-11-06T14:35:30;100955.44;;;13.19;76.43
76166;BME280;64925;46.718;20.136;2022-11-06T14:38:47;100958.50;;;13.10;76.98
76166;BME280;64925;46.718;20.136;2022-11-06T14:41:52;100959.00;;;13.26;74.60
76166;BME280;64925;46.718;20.136;2022-11-06T14:45:08;100946.69;;;12.96;76.45
76166;BME280;64925;46.718;20.136;2022-11-06T14:51:30;100949.72;;;12.87;77.21
76166;BME280;64925;46.718;20.136;2022-11-06T14:54:32;100945.75;;;12.78;78.06
76166;BME280;64925;46.718;20.136;2022-11-06T14:57:45;100946.19;;;12.87;76.53
76166;BME280;64925;46.718;20.136;2022-11-06T15:00:54;100952.75;;;12.79;77.61
76166;BME280;64925;46.718;20.136;2022-11-06T15:04:18;100946.13;;;12.80;76.55
76166;BME280;64925;46.718;20.136;2022-11-06T15:07:32;100951.50;;;12.69;77.21
76166;BME280;64925;46.718;20.136;2022-11-06T15:13:42;100942.56;;;12.69;77.76
76166;BME280;64925;46.718;20.136;2022-11-06T15:16:53;100934.66;;;12.60;78.41
76166;BME280;64925;46.718;20.136;2022-11-06T15:20:04;100938.94;;;12.54;78.60
76166;BME280;64925;46.718;20.136;2022-11-06T15:23:16;100937.66;;;12.45;78.93
76166;BME280;64925;46.718;20.136;2022-11-06T15:29:33;100948.81;;;12.33;78.86
76166;BME280;64925;46.718;20.136;2022-11-06T15:32:37;100940.94;;;12.24;79.27
76166;BME280;64925;46.718;20.136;2022-11-06T15:35:42;100949.50;;;12.23;79.36
76166;BME280;64925;46.718;20.136;2022-11-06T15:38:45;100959.63;;;12.22;79.44
76166;BME280;64925;46.718;20.136;2022-11-06T15:41:45;100946.28;;;12.14;79.73
76166;BME280;64925;46.718;20.136;2022-11-06T15:44:47;100950.47;;;12.08;80.07
76166;BME280;64925;46.718;20.136;2022-11-06T15:47:56;100949.28;;;12.05;80.65
76166;BME280;64925;46.718;20.136;2022-11-06T15:50:56;100942.63;;;11.99;80.96
76166;BME280;64925;46.718;20.136;2022-11-06T15:53:57;100960.84;;;11.95;80.72
76166;BME280;64925;46.718;20.136;2022-11-06T15:57:02;100962.53;;;12.07;81.12
76166;BME280;64925;46.718;20.136;2022-11-06T16:00:23;100960.84;;;11.95;81.85
76166;BME280;64925;46.718;20.136;2022-11-06T16:03:27;100957.25;;;11.88;82.72
76166;BME280;64925;46.718;20.136;2022-11-06T16:06:28;100969.31;;;11.87;81.63
76166;BME280;64925;46.718;20.136;2022-11-06T16:09:28;100971.59;;;11.85;82.60
76166;BME280;64925;46.718;20.136;2022-11-06T16:12:29;100971.09;;;11.76;82.28
76166;BME280;64925;46.718;20.136;2022-11-06T16:18:47;100983.22;;;11.82;82.34
76166;BME280;64925;46.718;20.136;2022-11-06T16:22:04;100976.31;;;11.88;82.20
76166;BME280;64925;46.718;20.136;2022-11-06T16:25:14;100983.94;;;11.75;82.69
76166;BME280;64925;46.718;20.136;2022-11-06T16:28:20;100987.25;;;11.91;81.67
76166;BME280;64925;46.718;20.136;2022-11-06T16:31:23;101002.03;;;11.90;81.73
76166;BME280;64925;46.718;20.136;2022-11-06T16:37:36;101000.03;;;11.87;82.40
76166;BME280;64925;46.718;20.136;2022-11-06T16:40:48;101003.03;;;11.79;82.68
76166;BME280;64925;46.718;20.136;2022-11-06T16:47:27;101012.13;;;11.90;82.25
76166;BME280;64925;46.718;20.136;2022-11-06T16:50:49;101018.16;;;11.76;83.07
76166;BME280;64925;46.718;20.136;2022-11-06T16:53:53;101016.16;;;11.73;83.67
76166;BME280;64925;46.718;20.136;2022-11-06T16:56:54;101028.47;;;11.90;82.69
76166;BME280;64925;46.718;20.136;2022-11-06T17:03:15;101017.00;;;11.77;83.53
76166;BME280;64925;46.718;20.136;2022-11-06T17:06:21;101020.25;;;11.86;83.08
76166;BME280;64925;46.718;20.136;2022-11-06T17:09:34;101025.94;;;11.74;84.02
76166;BME280;64925;46.718;20.136;2022-11-06T17:12:34;101032.50;;;11.73;83.43
76166;BME280;64925;46.718;20.136;2022-11-06T17:15:35;101026.94;;;11.63;84.23
76166;BME280;64925;46.718;20.136;2022-11-06T17:18:37;101033.88;;;11.60;84.88
76166;BME280;64925;46.718;20.136;2022-11-06T17:21:37;101045.22;;;11.66;84.95
76166;BME280;64925;46.718;20.136;2022-11-06T17:24:38;101036.31;;;11.69;84.69
76166;BME280;64925;46.718;20.136;2022-11-06T17:27:38;101039.16;;;11.76;84.24
76166;BME280;64925;46.718;20.136;2022-11-06T17:30:39;101031.38;;;11.78;84.12
76166;BME280;64925;46.718;20.136;2022-11-06T17:33:40;101028.78;;;11.59;85.27
76166;BME280;64925;46.718;20.136;2022-11-06T17:36:42;101020.91;;;11.54;85.72
76166;BME280;64925;46.718;20.136;2022-11-06T17:39:42;101021.56;;;11.70;84.33
76166;BME280;64925;46.718;20.136;2022-11-06T17:42:42;101027.69;;;11.63;84.44
76166;BME280;64925;46.718;20.136;2022-11-06T17:45:43;101031.03;;;11.53;84.87
76166;BME280;64925;46.718;20.136;2022-11-06T17:48:46;101030.59;;;11.51;85.09
76166;BME280;64925;46.718;20.136;2022-11-06T17:51:47;101036.66;;;11.41;85.73